createdAt,value
2018-07-13T00:01:17.095Z,16.50
2018-07-13T00:03:44.578Z,16.40
2018-07-13T00:06:11.740Z,16.40
2018-07-13T00:08:38.859Z,16.30
2018-07-13T00:11:05.957Z,16.40
2018-07-13T00:13:37.736Z,16.50
2018-07-13T00:16:04.904Z,16.50
2018-07-13T00:18:32.223Z,16.40
2018-07-13T00:20:59.283Z,16.50
2018-07-13T00:23:26.981Z,16.50
2018-07-13T00:25:54.067Z,16.50
2018-07-13T00:28:21.173Z,16.50
2018-07-13T00:30:48.647Z,16.50
2018-07-13T00:35:49.528Z,16.30
2018-07-13T00:38:16.672Z,16.30
2018-07-13T00:40:43.782Z,16.30
2018-07-13T00:43:10.801Z,16.40
2018-07-13T00:45:38.005Z,16.40
2018-07-13T00:48:04.947Z,16.50
2018-07-13T00:50:31.892Z,16.50
2018-07-13T00:52:58.862Z,16.50
2018-07-13T00:55:25.781Z,16.50
2018-07-13T00:57:52.729Z,16.50
2018-07-13T01:00:28.193Z,16.50
2018-07-13T01:02:55.881Z,16.40
2018-07-13T01:05:22.853Z,16.50
2018-07-13T01:07:49.808Z,16.60
2018-07-13T01:10:16.880Z,16.50
2018-07-13T01:12:44.052Z,16.50
2018-07-13T01:15:11.005Z,16.50
2018-07-13T01:17:37.969Z,16.50
2018-07-13T01:20:04.933Z,16.50
2018-07-13T01:22:32.358Z,16.50
2018-07-13T01:27:32.974Z,16.60
2018-07-13T01:29:59.941Z,16.60
2018-07-13T01:32:26.969Z,16.40
2018-07-13T01:34:53.977Z,16.40
2018-07-13T01:37:20.900Z,16.30
2018-07-13T01:39:48.133Z,16.20
2018-07-13T01:42:15.053Z,16.50
2018-07-13T01:44:41.996Z,16.50
2018-07-13T01:47:08.969Z,16.50
2018-07-13T01:49:35.912Z,16.50
2018-07-13T01:54:29.735Z,16.60
2018-07-13T01:56:56.640Z,16.70
2018-07-13T01:59:23.592Z,16.70
2018-07-13T02:01:50.541Z,16.70
2018-07-13T02:04:17.472Z,16.70
2018-07-13T02:06:44.406Z,16.80
2018-07-13T02:09:11.349Z,16.80
2018-07-13T02:11:38.264Z,16.80
2018-07-13T02:14:05.276Z,16.80
2018-07-13T02:16:32.245Z,16.70
2018-07-13T02:19:00.164Z,16.60
2018-07-13T02:23:53.996Z,16.50
2018-07-13T02:26:20.953Z,16.50
2018-07-13T02:28:47.970Z,16.60
2018-07-13T02:31:14.881Z,16.60
2018-07-13T02:33:41.887Z,16.70
2018-07-13T02:36:09.724Z,16.80
2018-07-13T02:38:36.654Z,16.80
2018-07-13T02:41:03.589Z,16.90
2018-07-13T02:43:31.665Z,16.90
2018-07-13T02:48:25.456Z,16.80
2018-07-13T02:50:52.416Z,16.90
2018-07-13T02:53:19.348Z,16.90
2018-07-13T02:55:46.298Z,16.90
2018-07-13T02:58:13.320Z,16.90
2018-07-13T03:00:40.281Z,16.90
2018-07-13T03:03:08.505Z,16.90
2018-07-13T03:05:35.451Z,16.70
2018-07-13T03:08:02.361Z,16.80
2018-07-13T03:10:29.288Z,16.90
2018-07-13T03:12:56.205Z,16.90
2018-07-13T03:15:23.164Z,16.90
2018-07-13T03:17:50.100Z,16.70
2018-07-13T03:20:17.041Z,16.60
2018-07-13T03:22:44.150Z,16.50
2018-07-13T03:25:11.137Z,16.40
2018-07-13T03:30:12.747Z,16.60
2018-07-13T03:32:40.167Z,16.70
2018-07-13T03:35:07.423Z,16.70
2018-07-13T03:37:34.353Z,16.60
2018-07-13T03:40:01.299Z,16.50
2018-07-13T03:42:28.228Z,16.50
2018-07-13T03:44:55.454Z,16.60
2018-07-13T03:47:22.383Z,16.60
2018-07-13T03:49:49.315Z,16.60
2018-07-13T03:52:17.333Z,16.70
2018-07-13T03:54:44.298Z,16.60
2018-07-13T03:57:11.364Z,16.70
2018-07-13T03:59:38.293Z,16.70
2018-07-13T04:02:05.244Z,16.80
2018-07-13T04:04:32.205Z,16.80
2018-07-13T04:06:59.181Z,16.80
2018-07-13T04:09:26.111Z,16.70
2018-07-13T04:11:53.038Z,16.80
2018-07-13T04:14:20.064Z,16.90
2018-07-13T04:16:47.019Z,17.10
2018-07-13T04:19:13.953Z,17.20
2018-07-13T04:21:40.952Z,17.20
2018-07-13T04:24:07.972Z,17.30
2018-07-13T04:26:34.965Z,17.40
2018-07-13T04:29:01.938Z,17.40
2018-07-13T04:31:28.947Z,17.60
2018-07-13T04:33:55.889Z,17.70
2018-07-13T04:36:22.832Z,17.80
2018-07-13T04:38:49.798Z,17.90
2018-07-13T04:41:17.164Z,18.30
2018-07-13T04:43:44.117Z,18.70
2018-07-13T04:46:11.275Z,18.70
2018-07-13T04:48:39.027Z,18.90
2018-07-13T04:51:06.314Z,19.30
2018-07-13T04:53:33.296Z,19.70
2018-07-13T04:56:00.292Z,20.10
2018-07-13T04:58:27.289Z,20.20
2018-07-13T05:00:55.246Z,20.40
2018-07-13T05:03:22.491Z,20.90
2018-07-13T05:05:49.629Z,21.20
2018-07-13T05:08:17.267Z,21.40
2018-07-13T05:10:44.297Z,21.60
2018-07-13T05:13:11.355Z,21.70
2018-07-13T05:15:38.321Z,21.90
2018-07-13T05:18:05.308Z,22.10
2018-07-13T05:20:33.863Z,22.30
2018-07-13T05:23:00.873Z,22.60
2018-07-13T05:25:27.959Z,22.70
2018-07-13T05:27:55.788Z,22.80
2018-07-13T05:30:23.133Z,23.00
2018-07-13T05:32:50.726Z,23.10
2018-07-13T05:35:18.418Z,23.20
2018-07-13T05:37:46.087Z,23.60
2018-07-13T05:40:13.188Z,23.70
2018-07-13T05:42:40.248Z,23.90
2018-07-13T05:45:07.489Z,24.10
2018-07-13T05:47:34.461Z,24.30
2018-07-13T05:50:01.502Z,24.50
2018-07-13T05:52:29.074Z,24.60
2018-07-13T05:54:56.837Z,24.70
2018-07-13T05:57:23.825Z,24.90
2018-07-13T05:59:50.828Z,25.10
2018-07-13T06:02:17.807Z,25.30
2018-07-13T06:04:44.821Z,25.50
2018-07-13T06:07:11.813Z,25.70
2018-07-13T06:09:38.859Z,25.50
2018-07-13T06:12:06.420Z,25.80
2018-07-13T06:14:33.991Z,25.50
2018-07-13T06:17:01.029Z,25.60
2018-07-13T06:19:27.948Z,25.90
2018-07-13T06:21:54.909Z,25.90
2018-07-13T06:24:21.996Z,25.70
2018-07-13T06:26:48.875Z,25.30
2018-07-13T06:29:15.820Z,24.90
2018-07-13T06:31:42.794Z,24.40
2018-07-13T06:34:09.740Z,24.20
2018-07-13T06:36:36.732Z,24.10
2018-07-13T06:39:05.576Z,24.00
2018-07-13T06:41:32.568Z,24.00
2018-07-13T06:43:59.613Z,23.90
2018-07-13T06:46:26.583Z,23.90
2018-07-13T06:48:53.564Z,23.80
2018-07-13T06:51:20.564Z,23.90
2018-07-13T06:53:47.552Z,24.10
2018-07-13T06:56:14.572Z,24.30
2018-07-13T06:58:47.329Z,24.30
2018-07-13T07:01:14.285Z,24.50
2018-07-13T07:04:51.130Z,24.60
2018-07-13T07:07:18.661Z,24.50
2018-07-13T07:09:53.305Z,24.80
2018-07-13T07:12:54.962Z,25.10
2018-07-13T07:15:23.059Z,25.30
2018-07-13T07:17:50.507Z,25.50
2018-07-13T07:20:17.480Z,25.70
2018-07-13T07:22:45.707Z,25.90
2018-07-13T07:25:13.265Z,25.80
2018-07-13T07:27:40.254Z,25.50
2018-07-13T07:30:07.288Z,25.70
2018-07-13T07:32:34.592Z,25.70
2018-07-13T07:35:01.565Z,25.40
2018-07-13T07:37:28.544Z,25.20
2018-07-13T07:39:55.530Z,25.50
2018-07-13T07:42:22.547Z,26.10
2018-07-13T07:44:49.518Z,26.10
2018-07-13T07:47:16.570Z,26.30
2018-07-13T07:49:43.528Z,26.20
2018-07-13T07:52:10.478Z,26.20
2018-07-13T07:54:37.444Z,25.90
2018-07-13T07:57:04.472Z,26.10
2018-07-13T07:59:31.589Z,26.40
2018-07-13T08:01:58.793Z,26.30
2018-07-13T08:04:25.742Z,26.40
2018-07-13T08:06:52.941Z,26.30
2018-07-13T08:09:19.641Z,26.50
2018-07-13T08:11:46.584Z,26.70
2018-07-13T08:14:13.883Z,26.90
2018-07-13T08:16:40.592Z,26.70
2018-07-13T08:19:07.525Z,26.70
2018-07-13T08:21:36.589Z,27.10
2018-07-13T08:24:03.552Z,27.50
2018-07-13T08:26:30.545Z,27.60
2018-07-13T08:28:57.576Z,27.50
2018-07-13T08:31:24.553Z,27.70
2018-07-13T08:33:51.931Z,27.60
2018-07-13T08:36:18.886Z,27.80
2018-07-13T08:38:46.324Z,27.70
2018-07-13T08:41:13.308Z,27.80
2018-07-13T08:43:40.403Z,27.50
2018-07-13T08:46:07.390Z,27.50
2018-07-13T08:48:34.965Z,27.60
2018-07-13T08:51:01.925Z,27.70
2018-07-13T08:55:56.315Z,28.40
2018-07-13T08:58:23.368Z,28.70
2018-07-13T09:00:51.113Z,28.40
2018-07-13T09:03:18.276Z,28.30
2018-07-13T09:05:45.317Z,28.60
2018-07-13T09:08:13.295Z,28.30
2018-07-13T09:10:40.256Z,28.30
2018-07-13T09:13:07.229Z,28.40
2018-07-13T09:15:34.241Z,28.80
2018-07-13T09:18:01.583Z,28.70
2018-07-13T09:20:28.536Z,28.80
2018-07-13T09:22:55.489Z,28.50
2018-07-13T09:25:22.498Z,28.20
2018-07-13T09:27:49.466Z,28.30
2018-07-13T09:30:16.428Z,28.30
2018-07-13T09:32:43.460Z,28.60
2018-07-13T09:35:11.200Z,28.90
2018-07-13T09:37:38.165Z,29.20
2018-07-13T09:40:05.220Z,28.90
2018-07-13T09:42:32.385Z,28.70
2018-07-13T09:44:59.357Z,29.00
2018-07-13T09:47:26.336Z,29.00
2018-07-13T09:49:53.326Z,29.00
2018-07-13T09:52:20.611Z,29.10
2018-07-13T09:54:47.596Z,29.00
2018-07-13T09:57:15.494Z,29.00
2018-07-13T09:59:43.102Z,29.50
2018-07-13T10:02:10.705Z,29.50
2018-07-13T10:04:37.695Z,29.30
2018-07-13T10:07:04.967Z,29.20
2018-07-13T10:09:32.432Z,29.20
2018-07-13T10:11:59.465Z,29.30
2018-07-13T10:14:27.498Z,29.40
2018-07-13T10:16:54.472Z,29.50
2018-07-13T10:19:21.981Z,29.90
2018-07-13T10:21:49.009Z,30.00
2018-07-13T10:24:16.504Z,29.80
2018-07-13T10:26:43.486Z,29.90
2018-07-13T10:29:11.720Z,30.10
2018-07-13T10:31:38.737Z,30.10
2018-07-13T10:34:06.077Z,29.80
2018-07-13T10:36:34.946Z,29.80
2018-07-13T10:39:01.880Z,29.90
2018-07-13T10:41:28.832Z,30.10
2018-07-13T10:44:02.693Z,29.70
2018-07-13T10:46:29.950Z,29.70
2018-07-13T10:48:57.361Z,29.90
2018-07-13T10:51:25.591Z,29.40
2018-07-13T10:53:52.525Z,29.30
2018-07-13T10:56:19.469Z,29.50
2018-07-13T10:58:46.397Z,29.60
2018-07-13T11:01:13.344Z,29.30
2018-07-13T11:03:40.304Z,29.20
2018-07-13T11:06:07.628Z,29.00
2018-07-13T11:08:34.606Z,28.90
2018-07-13T11:11:01.625Z,28.70
2018-07-13T11:13:28.542Z,28.50
2018-07-13T11:15:55.756Z,28.30
2018-07-13T11:18:22.723Z,28.20
2018-07-13T11:20:49.706Z,28.00
2018-07-13T11:23:16.662Z,27.90
2018-07-13T11:25:43.589Z,27.80
2018-07-13T11:28:10.554Z,27.70
2018-07-13T11:30:37.500Z,27.70
2018-07-13T11:33:04.845Z,27.60
2018-07-13T11:35:31.844Z,27.50
2018-07-13T11:38:00.086Z,27.50
2018-07-13T11:40:27.069Z,27.80
2018-07-13T11:42:54.052Z,28.00
2018-07-13T11:45:21.035Z,28.20
2018-07-13T11:47:47.980Z,28.30
2018-07-13T11:52:41.800Z,28.70
2018-07-13T11:55:08.772Z,29.00
2018-07-13T11:57:35.745Z,29.10
2018-07-13T12:00:02.746Z,29.30
2018-07-13T12:02:29.701Z,29.60
2018-07-13T12:04:56.714Z,29.80
2018-07-13T12:07:23.713Z,29.90
2018-07-13T12:09:50.926Z,29.80
2018-07-13T12:12:18.026Z,29.70
2018-07-13T12:14:45.074Z,29.50
2018-07-13T12:17:12.646Z,29.30
2018-07-13T12:22:13.613Z,29.20
2018-07-13T12:24:40.715Z,29.10
2018-07-13T12:27:07.846Z,29.20
2018-07-13T12:29:35.841Z,29.30
2018-07-13T12:32:02.890Z,29.50
2018-07-13T12:34:30.212Z,29.70
2018-07-13T12:36:57.241Z,29.70
2018-07-13T12:39:24.338Z,29.80
2018-07-13T12:41:51.330Z,29.70
2018-07-13T12:44:18.321Z,29.60
2018-07-13T12:46:45.454Z,29.80
2018-07-13T12:49:13.279Z,30.00
2018-07-13T12:51:41.002Z,30.00
2018-07-13T12:54:08.114Z,30.10
2018-07-13T12:56:35.088Z,30.30
2018-07-13T12:59:02.104Z,30.20
2018-07-13T13:01:29.144Z,29.90
2018-07-13T13:03:56.228Z,29.70
2018-07-13T13:06:23.259Z,29.60
2018-07-13T13:08:50.293Z,29.40
2018-07-13T13:11:17.345Z,29.50
2018-07-13T13:13:44.301Z,29.50
2018-07-13T13:16:12.512Z,29.60
2018-07-13T13:18:40.083Z,29.60
2018-07-13T13:21:07.026Z,29.60
2018-07-13T13:23:33.993Z,29.60
2018-07-13T13:26:01.107Z,29.70
2018-07-13T13:28:28.688Z,29.70
2018-07-13T13:30:56.570Z,29.70
2018-07-13T13:33:24.066Z,29.50
2018-07-13T13:35:51.008Z,29.40
2018-07-13T13:38:19.356Z,29.50
2018-07-13T13:40:46.597Z,29.30
2018-07-13T13:43:14.286Z,29.10
2018-07-13T13:45:41.297Z,29.10
2018-07-13T13:48:08.280Z,29.10
2018-07-13T13:50:35.293Z,29.00
2018-07-13T13:53:02.184Z,29.00
2018-07-13T13:55:29.128Z,28.90
2018-07-13T13:57:56.159Z,28.80
2018-07-13T14:00:23.176Z,28.70
2018-07-13T14:02:50.132Z,28.80
2018-07-13T14:05:17.112Z,28.90
2018-07-13T14:07:45.241Z,28.90
2018-07-13T14:10:12.280Z,28.90
2018-07-13T14:12:40.345Z,28.80
2018-07-13T14:28:56.435Z,28.60
2018-07-13T14:31:23.386Z,28.60
2018-07-13T14:33:50.466Z,28.60
2018-07-13T14:36:17.447Z,28.70
2018-07-13T14:38:44.639Z,28.80
2018-07-13T14:41:11.604Z,28.80
2018-07-13T14:43:38.565Z,29.00
2018-07-13T14:46:05.492Z,29.10
2018-07-13T14:48:32.550Z,28.60
2018-07-13T14:50:59.557Z,28.40
2018-07-13T14:53:26.520Z,28.50
2018-07-13T14:55:54.344Z,28.50
2018-07-13T14:58:21.288Z,28.70
2018-07-13T15:00:48.593Z,28.60
2018-07-13T15:03:15.516Z,28.60
2018-07-13T15:05:43.196Z,28.70
2018-07-13T15:08:10.085Z,28.70
2018-07-13T15:10:37.120Z,28.60
2018-07-13T15:13:04.319Z,28.60
2018-07-13T15:15:31.890Z,28.40
2018-07-13T15:17:58.892Z,28.50
2018-07-13T15:20:25.837Z,28.50
2018-07-13T15:22:52.776Z,28.60
2018-07-13T15:25:20.746Z,28.60
2018-07-13T15:27:47.665Z,28.60
2018-07-13T15:30:14.604Z,28.70
2018-07-13T15:32:41.600Z,28.70
2018-07-13T15:35:08.712Z,28.80
2018-07-13T15:37:35.698Z,28.70
2018-07-13T15:40:02.673Z,28.60
2018-07-13T15:42:30.206Z,28.40
2018-07-13T15:44:57.154Z,28.20
2018-07-13T15:47:24.097Z,28.20
2018-07-13T15:49:51.140Z,28.10
2018-07-13T15:52:18.059Z,28.10
2018-07-13T15:54:45.002Z,28.00
2018-07-13T15:57:12.598Z,28.00
2018-07-13T15:59:39.649Z,27.90
2018-07-13T16:02:07.180Z,27.90
2018-07-13T16:07:01.501Z,27.80
2018-07-13T16:09:28.464Z,27.70
2018-07-13T16:11:55.558Z,27.70
2018-07-13T16:14:22.513Z,27.70
2018-07-13T16:16:49.468Z,27.70
2018-07-13T16:19:16.436Z,27.70
2018-07-13T16:21:43.988Z,27.80
2018-07-13T16:24:10.934Z,27.80
2018-07-13T16:26:37.879Z,27.60
2018-07-13T16:29:04.832Z,27.60
2018-07-13T16:31:32.140Z,27.60
2018-07-13T16:33:59.546Z,27.60
2018-07-13T16:36:26.481Z,27.50
2018-07-13T16:38:53.401Z,27.50
2018-07-13T16:41:20.378Z,27.50
2018-07-13T16:43:47.330Z,27.50
2018-07-13T16:46:14.501Z,27.50
2018-07-13T16:48:41.516Z,27.60
2018-07-13T16:51:08.472Z,27.60
2018-07-13T16:53:35.445Z,27.60
2018-07-13T16:56:02.532Z,27.60
2018-07-13T16:58:29.564Z,27.50
2018-07-13T17:00:56.958Z,27.50
2018-07-13T17:03:23.915Z,27.50
2018-07-13T17:05:50.858Z,27.40
2018-07-13T17:08:18.842Z,27.30
2018-07-13T17:10:45.774Z,27.30
2018-07-13T17:13:12.766Z,27.20
2018-07-13T17:15:40.244Z,27.10
2018-07-13T17:18:07.313Z,27.00
2018-07-13T17:20:34.810Z,27.00
2018-07-13T17:23:01.580Z,27.00
2018-07-13T17:25:28.532Z,27.00
2018-07-13T17:27:55.473Z,26.90
2018-07-13T17:30:22.484Z,27.00
2018-07-13T17:32:50.077Z,27.00
2018-07-13T17:35:17.356Z,26.90
2018-07-13T17:37:44.393Z,26.90
2018-07-13T17:40:11.333Z,26.80
2018-07-13T17:42:38.291Z,26.70
2018-07-13T17:45:05.306Z,26.70
2018-07-13T17:49:59.252Z,26.70
2018-07-13T17:52:26.293Z,26.70
2018-07-13T17:54:53.346Z,26.70
2018-07-13T17:57:20.343Z,26.60
2018-07-13T17:59:47.281Z,26.60
2018-07-13T18:02:14.254Z,26.60
2018-07-13T18:04:41.205Z,26.60
2018-07-13T18:07:08.540Z,26.50
2018-07-13T18:09:36.358Z,26.50
2018-07-13T18:12:04.539Z,26.50
2018-07-13T18:14:31.993Z,26.30
2018-07-13T18:16:58.921Z,26.40
2018-07-13T18:19:26.375Z,26.20
2018-07-13T18:21:53.972Z,26.20
2018-07-13T18:24:21.605Z,26.20
2018-07-13T18:26:49.506Z,26.10
2018-07-13T18:29:17.449Z,26.00
2018-07-13T18:31:44.982Z,25.90
2018-07-13T18:34:11.945Z,25.80
2018-07-13T18:36:39.412Z,25.70
2018-07-13T18:39:08.144Z,25.60
2018-07-13T18:41:35.746Z,25.60
2018-07-13T18:44:03.598Z,25.50
2018-07-13T18:46:30.544Z,25.40
2018-07-13T18:48:57.571Z,25.30
2018-07-13T18:51:25.253Z,25.30
2018-07-13T18:53:52.196Z,25.30
2018-07-13T18:56:19.187Z,25.20
2018-07-13T18:58:46.549Z,25.10
2018-07-13T19:01:13.481Z,25.00
2018-07-13T19:03:41.136Z,24.90
2018-07-13T19:06:08.090Z,25.00
2018-07-13T19:08:35.119Z,24.90
2018-07-13T19:11:03.021Z,24.90
2018-07-13T19:13:30.041Z,24.90
2018-07-13T19:15:56.985Z,24.80
2018-07-13T19:18:24.482Z,24.80
2018-07-13T19:20:51.525Z,24.70
2018-07-13T19:23:18.509Z,24.70
2018-07-13T19:25:45.658Z,24.70
2018-07-13T19:28:12.684Z,24.70
2018-07-13T19:30:39.888Z,24.60
2018-07-13T19:33:06.790Z,24.60
2018-07-13T19:35:34.761Z,24.50
2018-07-13T19:38:01.811Z,24.50
2018-07-13T19:40:29.788Z,24.50
2018-07-13T19:42:57.349Z,24.40
2018-07-13T19:45:24.306Z,24.40
2018-07-13T19:47:51.520Z,24.30
2018-07-13T19:50:18.926Z,24.30
2018-07-13T19:52:46.522Z,24.30
2018-07-13T19:55:13.497Z,24.20
2018-07-13T19:57:40.532Z,24.20
2018-07-13T20:00:07.545Z,24.20
2018-07-13T20:02:34.534Z,24.20
2018-07-13T20:05:01.470Z,24.20
2018-07-13T20:07:28.957Z,24.10
2018-07-13T20:09:55.928Z,24.10
2018-07-13T20:12:24.295Z,24.00
2018-07-13T20:14:52.136Z,23.90
2018-07-13T20:17:19.242Z,23.90
2018-07-13T20:19:46.137Z,23.90
2018-07-13T20:22:13.217Z,23.90
2018-07-13T20:24:40.202Z,23.80
2018-07-13T20:27:07.176Z,23.80
2018-07-13T20:29:34.190Z,23.70
2018-07-13T20:32:01.544Z,23.70
2018-07-13T20:34:28.524Z,23.60
2018-07-13T20:36:55.541Z,23.60
2018-07-13T20:39:23.241Z,23.50
2018-07-13T20:41:50.265Z,23.60
2018-07-13T20:44:17.210Z,23.50
2018-07-13T20:46:44.849Z,23.50
2018-07-13T20:49:11.837Z,23.50
2018-07-13T20:51:39.912Z,23.40
2018-07-13T20:54:07.577Z,23.40
2018-07-13T20:56:34.557Z,23.40
2018-07-13T20:59:01.601Z,23.20
2018-07-13T21:01:28.599Z,23.20
2018-07-13T21:03:55.798Z,23.10
2018-07-13T21:06:24.257Z,23.00
2018-07-13T21:08:51.219Z,22.90
2018-07-13T21:11:18.166Z,22.90
2018-07-13T21:13:45.110Z,22.80
2018-07-13T21:16:12.096Z,22.90
2018-07-13T21:18:39.745Z,22.70
2018-07-13T21:21:06.769Z,22.70
2018-07-13T21:23:33.718Z,22.60
2018-07-13T21:26:00.723Z,22.50
2018-07-13T21:28:27.669Z,22.50
2018-07-13T21:30:54.675Z,22.30
2018-07-13T21:33:21.656Z,22.30
2018-07-13T21:35:48.823Z,22.30
2018-07-13T21:38:15.802Z,22.30
2018-07-13T21:40:42.911Z,22.00
2018-07-13T21:43:09.905Z,21.80
2018-07-13T21:45:36.838Z,21.70
2018-07-13T21:48:04.404Z,21.60
2018-07-13T21:50:31.420Z,21.60
2018-07-13T21:52:59.152Z,21.50
2018-07-13T21:55:27.366Z,21.40
2018-07-13T21:57:54.348Z,21.30
2018-07-13T22:00:21.471Z,21.30
2018-07-13T22:02:48.986Z,21.30
2018-07-13T22:05:16.579Z,21.30
2018-07-13T22:10:10.429Z,21.10
2018-07-13T22:12:37.383Z,21.10
2018-07-13T22:15:04.383Z,21.00
2018-07-13T22:17:31.428Z,20.80
2018-07-13T22:19:58.445Z,20.60
2018-07-13T22:22:25.398Z,20.50
2018-07-13T22:24:52.371Z,20.50
2018-07-13T22:27:19.304Z,20.40
2018-07-13T22:29:46.284Z,20.40
2018-07-13T22:32:14.451Z,20.40
2018-07-13T22:34:41.404Z,20.40
2018-07-13T22:37:08.393Z,20.30
2018-07-13T22:39:36.502Z,20.30
2018-07-13T22:42:04.214Z,20.40
2018-07-13T22:44:31.722Z,20.40
2018-07-13T22:46:58.695Z,20.40
2018-07-13T22:49:25.635Z,20.40
2018-07-13T22:51:52.790Z,20.30
2018-07-13T22:54:20.260Z,20.30
2018-07-13T22:56:47.211Z,20.20
2018-07-13T22:59:14.829Z,20.10
2018-07-13T23:01:42.316Z,20.00
2018-07-13T23:04:09.533Z,20.00
2018-07-13T23:06:36.494Z,20.00
2018-07-13T23:09:03.863Z,19.90
2018-07-13T23:11:30.900Z,20.00
2018-07-13T23:13:58.824Z,20.00
2018-07-13T23:16:25.798Z,20.00
2018-07-13T23:18:52.769Z,19.90
2018-07-13T23:21:19.700Z,20.00
2018-07-13T23:23:47.277Z,19.90
2018-07-13T23:26:14.238Z,19.80
2018-07-13T23:28:41.200Z,19.60
2018-07-13T23:31:08.230Z,19.60
2018-07-13T23:36:02.942Z,19.50
2018-07-13T23:38:30.504Z,19.60
2018-07-13T23:40:58.419Z,19.40
2018-07-13T23:43:25.373Z,19.40
2018-07-13T23:45:52.312Z,19.40
2018-07-13T23:48:19.273Z,19.40
2018-07-13T23:50:46.211Z,19.40
2018-07-13T23:53:13.856Z,19.40
2018-07-13T23:55:40.889Z,19.30
2018-07-13T23:58:07.873Z,19.30
